Milton (District Hospital) Heliport

CPY2 · 安大略, 加拿大

使用的METAR站距离机场15 NM。
罗盘
风向 的 风向 350° 直升机
风向 到 风: 18 kt, 阵阵 24 kt, 5 beaufort
0 ft 6.000 12.000 18.000 24.000 30.000
Cloud Cloud
FEW 2.800
Cloud Cloud Cloud Cloud
SCT 21.000
METAR CYYZ 232000Z 35018G24KT 15SM FEW028 SCT210 06/M01 A2952 RMK CU1CI2 SLP002

METAR Milton (District Hospital) Heliport - CPY2

Milton (District Hospital) Heliport是,加拿大中的直升机场。 该机场位于纬度43,49589和经度-79,86969。 该机场的伪ICAO代码为CPY2。 机场在Toronto FIR中。

该航空气象观测是针对Lester B Pearson International Airport在2024年2月23日 15:00, 当地时间进行的。

机场观察

风向为350°,速度为18 kt。 已测得24 kt的阵风。

可见度为15 mi。

有几云在2.800 ft的高度 和 疏云,零星散落的云朵在21.000 ft的高度。 没有观察到天花板。

温度为6 °C,阵风为-1 °C。 露点为-1 °C,相对湿度为61%。 海平面上的气压为29,52 inHg (QNH)。

白天

今天,太阳从07:05升起,在17:59降落。 这适用于Milton (District Hospital) Heliport,世界夏令时可能有所不同。 当地时间与世界标准时间之间的时差为-5 小时。 当前,没有夏令时有效。

公司介绍

我们没有关于这个机场的公司信息。

体会

到Vliegles.nl去找飞行课程,跳伞和其他飞行体验。 浏览页面,了解Milton (District Hospital) Heliport附近所有可用的活动。 你也可以使用搜索功能来寻找你所在地附近的特定飞行课程、跳伞或其他飞行体验。

乌云

2.800 ft FEW 几云
21.000 ft SCT 疏云,零星散落的云朵

温度 & 天气

温度 6 °C
露点 -1 °C
相对湿度 61%
风寒 -1 °C
Kp-index 0 (0-9)

评论

SLP002海平面压力为29,54 inHg (29,54 inHg)
CU1CI2

白天

日出
07:05
中午
12:31
日落
17:58 (2:43)

小工具

你想在你的网站上有一个关于Milton (District Hospital) Heliport的当前航空天气(METAR)的小部件吗?

显示HTML代码
?>